Blue Diamond, NV (89004)

9:35 PM PDT on April 25, 2017 (GMT -0700)
Ladera Summerlin | | Change Station

Elev 2782 ft 36.09 °N, 115.32 °W | Updated 39 seconds ago

Clear
Clear
65.1 °F
Feels Like 65.1 °F
N
0.0
Wind Variable Wind from WSW
Gusts 0.0 mph

Today
High -- | Low -- °F
--% Chance of Precip.
Yesterday
High -- | Low -- °F
Precip. -- in
Pressure 29.78 in
Visibility 10.0 miles
Clouds Few 25000 ft
Dew Point 16 °F
Humidity 15%
Rainfall 0.00 in
Snow Depth Not available.
5:55 AM 7:24 PM
Waning Crescent, 0% visible
METAR KLAS 260356Z 06012KT 10SM FEW250 22/M11 A2983 RMK AO2 SLP082 T02171111
Pressure 29.78 in
Visibility 10.0 miles
Clouds Few 25000 ft
Dew Point 16 °F
Humidity 15%
Rainfall 0.00 in
Snow Depth Not available.
5:55 AM 7:24 PM
Waning Crescent, 0% visible
METAR KLAS 260356Z 06012KT 10SM FEW250 22/M11 A2983 RMK AO2 SLP082 T02171111

Get Severe Weather Alerts

Thanks for signing up!

Be on the lookout for a verification email in your inbox.

You'll start receiving the daily forecast at 8 AM.

×

10-Day Weather Forecast

Almanac

Astronomy

Apr. 25, 2017 Rise Set
Actual Time
Civil Twilight
Nautical Twilight
Astronomical Twilight
Moon
Length of Visible Light
Length of Day
Tomorrow will be .
, % of the Moon is Illuminated

Today's Extremes

State Highs State Lows

Community

WunderPhotos

WunderBlog® & News

Nearby

Air Quality

  Air Quality AQ Index Pollutant
Not available.

Snow Depth

Station Depth Elevation

Earthquake Activity

City Distance Mag. Time & Date
Minimum magnitude displayed is 2.5.

Coastal Water Temperatures

Place Temperature

Stations

Nearby Weather Stations

Station Location Temp. Windchill Dew Point Humidity Wind Precip. Elev Updated Type
                   

Watches & Warnings

There are currently no watches in effect.